createdAt,value
2017-11-03T00:02:24.190Z,89.90
2017-11-03T00:04:53.160Z,90.00
2017-11-03T00:07:23.409Z,90.00
2017-11-03T00:09:57.130Z,90.10
2017-11-03T00:12:25.350Z,90.10
2017-11-03T00:14:56.553Z,90.20
2017-11-03T00:17:24.691Z,90.40
2017-11-03T00:19:55.254Z,90.60
2017-11-03T00:22:26.145Z,90.50
2017-11-03T00:25:00.350Z,90.60
2017-11-03T00:27:32.318Z,90.60
2017-11-03T00:30:00.807Z,90.60
2017-11-03T00:32:32.461Z,90.60
2017-11-03T00:35:00.269Z,90.50
2017-11-03T00:37:30.425Z,90.40
2017-11-03T00:40:02.647Z,90.60
2017-11-03T00:42:35.027Z,90.20
2017-11-03T00:45:06.135Z,90.20
2017-11-03T00:47:49.456Z,90.10
2017-11-03T00:50:24.224Z,90.10
2017-11-03T00:52:56.973Z,90.50
2017-11-03T00:55:28.820Z,90.40
2017-11-03T00:57:59.501Z,90.50
2017-11-03T01:00:31.188Z,90.50
2017-11-03T01:03:05.183Z,90.60
2017-11-03T01:05:35.366Z,90.60
2017-11-03T01:08:06.989Z,90.60
2017-11-03T01:10:38.720Z,90.60
2017-11-03T01:13:08.244Z,90.60
2017-11-03T01:15:38.938Z,90.70
2017-11-03T01:18:08.392Z,90.80
2017-11-03T01:23:21.782Z,90.60
2017-11-03T01:25:51.728Z,90.90
2017-11-03T01:28:22.386Z,90.30
2017-11-03T01:30:51.808Z,90.30
2017-11-03T01:33:24.589Z,90.70
2017-11-03T01:35:58.089Z,90.70
2017-11-03T01:38:34.227Z,90.80
2017-11-03T01:41:02.271Z,90.80
2017-11-03T01:43:31.713Z,90.90
2017-11-03T01:46:02.025Z,91.10
2017-11-03T01:48:31.538Z,91.00
2017-11-03T01:51:03.010Z,90.80
2017-11-03T01:53:31.885Z,90.60
2017-11-03T01:58:36.426Z,90.60
2017-11-03T02:01:08.733Z,90.80
2017-11-03T02:03:39.149Z,90.80
2017-11-03T02:06:07.916Z,90.90
2017-11-03T02:08:40.406Z,91.10
2017-11-03T02:11:10.705Z,91.00
2017-11-03T02:13:41.058Z,90.80
2017-11-03T02:16:19.931Z,90.90
2017-11-03T02:18:53.804Z,90.90
2017-11-03T02:21:26.654Z,91.20
2017-11-03T02:23:56.941Z,91.40
2017-11-03T02:26:28.170Z,91.50
2017-11-03T02:28:57.683Z,91.50
2017-11-03T02:31:28.190Z,91.40
2017-11-03T02:34:01.317Z,91.30
2017-11-03T02:36:28.870Z,91.00
2017-11-03T02:38:58.338Z,91.10
2017-11-03T02:41:28.077Z,91.00
2017-11-03T02:43:58.064Z,91.10
2017-11-03T02:46:28.138Z,91.10
2017-11-03T02:49:00.809Z,90.90
2017-11-03T02:51:30.817Z,91.00
2017-11-03T02:54:00.644Z,91.10
2017-11-03T02:56:32.228Z,91.20
2017-11-03T02:59:01.384Z,91.20
2017-11-03T03:01:33.725Z,91.20
2017-11-03T03:04:01.777Z,91.20
2017-11-03T03:06:30.985Z,91.20
2017-11-03T03:09:04.530Z,91.40
2017-11-03T03:11:32.859Z,91.40
2017-11-03T03:14:01.169Z,91.30
2017-11-03T03:16:29.545Z,91.30
2017-11-03T03:18:58.273Z,91.20
2017-11-03T03:21:31.452Z,91.30
2017-11-03T03:23:59.082Z,91.20
2017-11-03T03:26:28.829Z,91.10
2017-11-03T03:29:01.420Z,91.20
2017-11-03T03:31:31.056Z,91.40
2017-11-03T03:33:58.610Z,91.30
2017-11-03T03:36:30.532Z,91.50
2017-11-03T03:38:58.254Z,91.50
2017-11-03T03:41:26.970Z,91.50
2017-11-03T03:43:57.122Z,91.50
2017-11-03T03:46:26.645Z,91.50
2017-11-03T03:48:57.029Z,91.50
2017-11-03T03:51:28.368Z,91.50
2017-11-03T03:53:57.036Z,91.60
2017-11-03T05:21:28.553Z,91.60
2017-11-03T05:23:58.846Z,95.00
2017-11-03T05:26:26.843Z,95.00
2017-11-03T05:28:55.874Z,94.70
2017-11-03T05:31:26.815Z,94.70
2017-11-03T05:33:56.156Z,94.20
2017-11-03T05:36:25.350Z,93.80
2017-11-03T05:38:59.252Z,93.50
2017-11-03T05:41:28.127Z,93.50
2017-11-03T05:43:56.732Z,93.10
2017-11-03T05:46:25.889Z,92.80
2017-11-03T05:49:00.853Z,92.80
2017-11-03T05:51:30.730Z,93.00
2017-11-03T05:53:59.964Z,93.10
2017-11-03T05:56:27.572Z,93.10
2017-11-03T05:58:56.119Z,93.10
2017-11-03T06:01:24.436Z,93.10
2017-11-03T06:03:54.805Z,92.80
2017-11-03T06:06:23.928Z,92.50
2017-11-03T06:08:52.994Z,92.50
2017-11-03T06:11:24.625Z,92.80
2017-11-03T06:13:56.776Z,92.80
2017-11-03T06:16:32.546Z,93.10
2017-11-03T06:19:01.040Z,93.40
2017-11-03T06:21:28.625Z,93.40
2017-11-03T06:23:56.495Z,93.30
2017-11-03T06:26:26.891Z,93.00
2017-11-03T06:28:56.585Z,92.80
2017-11-03T06:31:26.337Z,92.60
2017-11-03T06:33:55.457Z,92.60
2017-11-03T06:36:24.766Z,92.50
2017-11-03T06:38:57.571Z,92.70
2017-11-03T06:41:26.183Z,92.80
2017-11-03T06:43:55.436Z,92.80
2017-11-03T06:46:30.072Z,92.70
2017-11-03T06:48:59.216Z,93.00
2017-11-03T06:51:28.914Z,92.70
2017-11-03T06:54:00.390Z,92.70
2017-11-03T06:56:29.317Z,92.50
2017-11-03T06:58:57.168Z,92.50
2017-11-03T07:01:27.422Z,92.60
2017-11-03T07:03:58.766Z,92.60
2017-11-03T07:06:27.148Z,92.40
2017-11-03T07:08:56.202Z,92.40
2017-11-03T07:11:24.112Z,92.40
2017-11-03T07:13:53.082Z,92.40
2017-11-03T07:16:23.487Z,92.30
2017-11-03T07:18:54.758Z,92.20
2017-11-03T07:21:25.488Z,92.30
2017-11-03T07:24:16.690Z,92.40
2017-11-03T07:26:50.187Z,92.40
2017-11-03T07:29:20.644Z,92.00
2017-11-03T07:31:51.260Z,91.70
2017-11-03T07:34:22.798Z,91.40
2017-11-03T07:36:53.631Z,91.40
2017-11-03T07:39:26.013Z,91.60
2017-11-03T07:41:56.463Z,91.60
2017-11-03T07:44:25.677Z,91.60
2017-11-03T07:46:56.748Z,91.50
2017-11-03T07:49:26.407Z,91.30
2017-11-03T07:51:56.281Z,90.90
2017-11-03T07:54:27.363Z,90.90
2017-11-03T07:56:56.760Z,90.80
2017-11-03T07:59:26.888Z,90.80
2017-11-03T08:01:56.958Z,90.50
2017-11-03T08:04:27.458Z,90.00
2017-11-03T08:06:56.303Z,89.60
2017-11-03T08:09:26.290Z,89.90
2017-11-03T08:11:55.332Z,90.10
2017-11-03T08:14:24.499Z,90.10
2017-11-03T08:16:53.107Z,88.70
2017-11-03T08:19:22.332Z,88.90
2017-11-03T08:21:51.626Z,88.60
2017-11-03T08:24:21.673Z,85.90
2017-11-03T08:26:51.475Z,84.60
2017-11-03T08:29:22.377Z,85.40
2017-11-03T08:31:53.550Z,84.00
2017-11-03T08:34:22.468Z,83.80
2017-11-03T08:36:51.886Z,83.90
2017-11-03T08:39:23.796Z,83.90
2017-11-03T08:41:54.519Z,84.90
2017-11-03T08:44:25.649Z,85.20
2017-11-03T08:46:55.467Z,86.50
2017-11-03T08:49:26.304Z,85.80
2017-11-03T08:51:58.046Z,86.40
2017-11-03T08:54:26.799Z,85.50
2017-11-03T08:56:54.458Z,85.50
2017-11-03T08:59:22.468Z,85.10
2017-11-03T09:01:50.157Z,85.00
2017-11-03T09:04:20.909Z,84.80
2017-11-03T09:06:50.400Z,84.80
2017-11-03T09:09:18.408Z,84.80
2017-11-03T09:11:46.392Z,86.00
2017-11-03T09:14:14.421Z,86.90
2017-11-03T09:16:45.416Z,87.60
2017-11-03T09:19:16.181Z,87.90
2017-11-03T09:21:45.001Z,88.10
2017-11-03T09:24:13.775Z,85.50
2017-11-03T09:26:42.264Z,85.00
2017-11-03T09:29:09.940Z,86.10
2017-11-03T09:31:37.531Z,86.80
2017-11-03T09:34:06.232Z,86.70
2017-11-03T09:36:33.848Z,85.00
2017-11-03T09:39:02.375Z,83.20
2017-11-03T09:41:30.532Z,82.60
2017-11-03T09:43:59.845Z,81.70
2017-11-03T09:46:28.251Z,81.20
2017-11-03T09:48:56.149Z,81.20
2017-11-03T09:51:24.134Z,80.20
2017-11-03T09:53:53.114Z,78.80
2017-11-03T09:56:23.077Z,78.10
2017-11-03T09:58:51.082Z,78.20
2017-11-03T10:01:21.094Z,81.90
2017-11-03T10:03:49.387Z,83.40
2017-11-03T10:06:19.357Z,83.40
2017-11-03T10:08:48.972Z,83.30
2017-11-03T10:11:20.134Z,80.00
2017-11-03T10:13:49.508Z,82.10
2017-11-03T10:16:19.170Z,83.50
2017-11-03T10:18:49.074Z,83.30
2017-11-03T10:21:19.067Z,84.20
2017-11-03T10:23:48.721Z,82.70
2017-11-03T10:26:18.855Z,83.30
2017-11-03T10:28:48.294Z,81.50
2017-11-03T10:31:17.309Z,81.50
2017-11-03T10:33:47.677Z,78.90
2017-11-03T10:36:17.989Z,79.70
2017-11-03T10:38:47.428Z,79.50
2017-11-03T10:41:17.399Z,78.20
2017-11-03T10:43:48.952Z,77.40
2017-11-03T10:46:21.365Z,77.40
2017-11-03T10:48:52.085Z,77.70
2017-11-03T10:51:24.100Z,77.40
2017-11-03T10:53:53.587Z,79.30
2017-11-03T10:56:22.506Z,78.70
2017-11-03T10:58:54.136Z,81.50
2017-11-03T11:01:24.241Z,77.60
2017-11-03T11:03:53.791Z,77.50
2017-11-03T11:06:24.564Z,76.50
2017-11-03T11:08:53.373Z,76.40
2017-11-03T11:11:23.424Z,75.60
2017-11-03T11:13:52.811Z,75.30
2017-11-03T11:16:25.054Z,75.20
2017-11-03T11:18:54.872Z,75.40
2017-11-03T11:21:27.135Z,75.50
2017-11-03T11:23:58.742Z,75.20
2017-11-03T11:26:29.714Z,74.90
2017-11-03T11:28:59.239Z,74.50
2017-11-03T11:31:28.880Z,74.90
2017-11-03T11:33:56.454Z,74.40
2017-11-03T11:36:24.696Z,74.00
2017-11-03T11:38:52.445Z,74.70
2017-11-03T11:41:20.144Z,75.30
2017-11-03T11:43:49.619Z,75.30
2017-11-03T11:46:17.614Z,75.20
2017-11-03T11:48:46.658Z,74.80
2017-11-03T11:51:16.530Z,75.40
2017-11-03T11:53:45.197Z,75.40
2017-11-03T11:56:13.320Z,75.30
2017-11-03T11:58:40.904Z,74.20
2017-11-03T12:01:08.478Z,74.10
2017-11-03T12:03:36.068Z,74.20
2017-11-03T12:06:03.673Z,74.80
2017-11-03T12:08:31.253Z,74.20
2017-11-03T12:10:58.805Z,73.80
2017-11-03T12:13:27.966Z,77.70
2017-11-03T12:15:56.290Z,75.40
2017-11-03T12:18:23.960Z,75.40
2017-11-03T12:20:52.466Z,74.90
2017-11-03T12:23:20.176Z,74.60
2017-11-03T12:25:48.912Z,76.40
2017-11-03T12:28:16.582Z,76.90
2017-11-03T12:30:45.110Z,77.80
2017-11-03T12:33:13.293Z,77.60
2017-11-03T12:35:41.040Z,78.30
2017-11-03T12:38:09.531Z,77.80
2017-11-03T12:40:37.197Z,77.60
2017-11-03T12:43:04.803Z,77.00
2017-11-03T12:45:32.421Z,76.50
2017-11-03T12:48:00.968Z,77.20
2017-11-03T12:50:28.606Z,77.10
2017-11-03T12:52:56.272Z,76.50
2017-11-03T12:55:24.907Z,76.40
2017-11-03T12:57:52.759Z,76.80
2017-11-03T13:00:20.473Z,76.00
2017-11-03T13:02:48.723Z,75.00
2017-11-03T13:05:17.445Z,74.10
2017-11-03T13:07:46.087Z,73.20
2017-11-03T13:10:14.681Z,72.20
2017-11-03T13:12:42.415Z,72.20
2017-11-03T13:15:10.389Z,72.30
2017-11-03T13:17:38.946Z,71.60
2017-11-03T13:20:06.753Z,70.10
2017-11-03T13:22:34.549Z,69.30
2017-11-03T13:25:03.230Z,68.40
2017-11-03T13:27:30.941Z,67.20
2017-11-03T13:29:58.951Z,64.90
2017-11-03T13:32:26.669Z,63.40
2017-11-03T13:34:54.889Z,60.70
2017-11-03T13:37:23.760Z,58.60
2017-11-03T13:39:52.363Z,57.20
2017-11-03T13:42:20.267Z,57.30
2017-11-03T13:44:50.098Z,58.50
2017-11-03T13:47:20.709Z,59.60
2017-11-03T13:49:49.598Z,63.60
2017-11-03T13:52:19.405Z,65.90
2017-11-03T13:54:48.982Z,65.80
2017-11-03T13:57:18.291Z,68.90
2017-11-03T13:59:46.718Z,68.90
2017-11-03T14:02:15.489Z,70.30
2017-11-03T14:04:44.296Z,71.40
2017-11-03T14:07:15.032Z,72.50
2017-11-03T14:09:44.230Z,73.40
2017-11-03T14:12:13.310Z,75.10
2017-11-03T14:14:43.550Z,75.40
2017-11-03T14:17:12.436Z,75.30
2017-11-03T14:19:40.255Z,76.60
2017-11-03T14:22:07.808Z,77.30
2017-11-03T14:24:35.448Z,77.90
2017-11-03T14:27:03.008Z,78.50
2017-11-03T14:29:30.597Z,79.40
2017-11-03T14:31:58.156Z,79.90
2017-11-03T14:34:26.354Z,80.10
2017-11-03T14:36:53.936Z,80.30
2017-11-03T14:39:22.644Z,81.60
2017-11-03T14:41:53.008Z,81.60
2017-11-03T14:44:21.007Z,81.80
2017-11-03T14:46:49.406Z,82.00
2017-11-03T14:49:18.433Z,83.30
2017-11-03T14:51:46.913Z,84.20
2017-11-03T14:54:15.674Z,85.20
2017-11-03T14:56:47.651Z,86.10
2017-11-03T14:59:16.556Z,86.10
2017-11-03T15:01:45.846Z,86.00
2017-11-03T15:04:14.608Z,86.40
2017-11-03T15:06:42.351Z,86.60
2017-11-03T15:09:09.983Z,87.00
2017-11-03T15:11:37.648Z,87.50
2017-11-03T15:14:05.298Z,87.80
2017-11-03T15:16:35.617Z,87.80
2017-11-03T15:19:03.998Z,88.00
2017-11-03T15:21:32.351Z,88.50
2017-11-03T15:23:59.984Z,88.40
2017-11-03T15:26:27.604Z,88.90
2017-11-03T15:28:55.472Z,89.70
2017-11-03T15:31:23.310Z,88.90
2017-11-03T15:33:51.947Z,89.70
2017-11-03T15:36:20.098Z,89.60
2017-11-03T15:38:47.916Z,89.60
2017-11-03T15:41:15.767Z,89.60
2017-11-03T15:43:49.678Z,89.90
2017-11-03T15:46:21.342Z,89.90
2017-11-03T15:48:50.052Z,90.20
2017-11-03T15:51:26.159Z,90.50
2017-11-03T15:53:55.215Z,90.50
2017-11-03T15:56:23.968Z,90.50
2017-11-03T15:58:54.736Z,90.40
2017-11-03T16:01:23.191Z,90.50
2017-11-03T16:03:51.901Z,90.50
2017-11-03T16:06:20.314Z,90.60
2017-11-03T16:08:50.436Z,90.60
2017-11-03T16:11:21.543Z,90.70
2017-11-03T16:13:52.377Z,90.70
2017-11-03T16:16:23.266Z,90.90
2017-11-03T16:18:52.006Z,91.00
2017-11-03T16:21:21.973Z,91.30
2017-11-03T16:23:51.856Z,91.20
2017-11-03T16:26:20.686Z,91.10
2017-11-03T16:28:50.119Z,91.40
2017-11-03T16:31:20.854Z,91.50
2017-11-03T16:33:53.918Z,91.80
2017-11-03T16:36:24.503Z,91.70
2017-11-03T16:38:56.531Z,91.40
2017-11-03T16:41:27.353Z,91.50
2017-11-03T16:43:59.252Z,91.50
2017-11-03T16:46:28.488Z,91.70
2017-11-03T16:48:58.069Z,91.80
2017-11-03T16:51:28.730Z,91.70
2017-11-03T16:53:58.640Z,91.70
2017-11-03T16:56:29.606Z,91.80
2017-11-03T16:58:59.355Z,91.70
2017-11-03T17:01:28.435Z,91.70
2017-11-03T17:03:58.222Z,91.80
2017-11-03T17:06:27.762Z,91.90
2017-11-03T17:08:56.988Z,92.20
2017-11-03T17:11:25.080Z,92.20
2017-11-03T17:13:53.459Z,92.30
2017-11-03T17:16:24.731Z,92.30
2017-11-03T17:18:54.893Z,92.30
2017-11-03T17:21:24.359Z,92.30
2017-11-03T17:23:53.347Z,92.40
2017-11-03T17:26:23.231Z,92.40
2017-11-03T17:28:53.126Z,92.50
2017-11-03T17:31:22.563Z,92.50
2017-11-03T17:33:51.828Z,92.60
2017-11-03T17:36:22.969Z,92.50
2017-11-03T17:38:51.999Z,92.60
2017-11-03T17:41:22.529Z,92.50
2017-11-03T17:43:53.082Z,92.50
2017-11-03T17:46:23.118Z,92.40
2017-11-03T17:48:52.480Z,93.20
2017-11-03T17:51:22.388Z,93.10
2017-11-03T17:53:56.253Z,93.00
2017-11-03T17:56:25.137Z,92.90
2017-11-03T17:58:54.049Z,93.10
2017-11-03T18:01:23.318Z,93.10
2017-11-03T18:03:54.422Z,93.00
2017-11-03T18:06:25.680Z,93.00
2017-11-03T18:08:54.344Z,93.50
2017-11-03T18:11:22.761Z,93.90
2017-11-03T18:13:52.713Z,94.30
2017-11-03T18:16:20.900Z,94.30
2017-11-03T18:18:50.652Z,93.90
2017-11-03T18:21:20.141Z,93.70
2017-11-03T18:23:50.804Z,93.90
2017-11-03T18:26:21.732Z,93.80
2017-11-03T18:28:51.213Z,93.90
2017-11-03T18:31:22.362Z,94.00
2017-11-03T18:33:52.670Z,93.90
2017-11-03T18:36:20.737Z,93.70
2017-11-03T18:38:48.773Z,93.60
2017-11-03T18:41:17.651Z,93.40
2017-11-03T18:43:46.612Z,93.50
2017-11-03T18:46:17.486Z,93.50
2017-11-03T18:48:45.479Z,93.50
2017-11-03T18:51:13.722Z,93.80
2017-11-03T18:53:42.184Z,93.90
2017-11-03T18:56:10.101Z,93.80
2017-11-03T18:58:38.444Z,93.70
2017-11-03T19:01:05.992Z,94.10
2017-11-03T19:03:33.619Z,93.70
2017-11-03T19:06:01.155Z,93.80
2017-11-03T19:08:28.731Z,93.90
2017-11-03T19:10:57.113Z,94.00
2017-11-03T19:13:24.685Z,94.00
2017-11-03T19:15:52.244Z,94.00
2017-11-03T19:18:19.833Z,94.20
2017-11-03T19:20:49.270Z,94.20
2017-11-03T19:23:18.814Z,94.20
2017-11-03T19:25:49.008Z,94.30
2017-11-03T19:28:17.159Z,94.10
2017-11-03T19:30:45.317Z,94.30
2017-11-03T19:33:15.335Z,94.50
2017-11-03T19:35:43.759Z,94.50
2017-11-03T19:38:11.668Z,94.50
2017-11-03T19:40:40.002Z,94.00
2017-11-03T19:43:07.796Z,94.20
2017-11-03T19:45:35.418Z,94.10
2017-11-03T19:48:02.989Z,93.90
2017-11-03T19:50:30.572Z,94.20
2017-11-03T19:52:58.156Z,94.10
2017-11-03T19:55:25.988Z,94.30
2017-11-03T19:57:53.843Z,94.30
2017-11-03T20:00:21.729Z,94.20
2017-11-03T20:02:50.202Z,94.30
2017-11-03T20:05:19.980Z,94.20
2017-11-03T20:07:49.315Z,94.20
2017-11-03T20:10:18.669Z,94.10
2017-11-03T20:12:48.207Z,94.10
2017-11-03T20:15:17.979Z,94.10
2017-11-03T20:17:48.021Z,94.30
2017-11-03T20:20:16.918Z,94.60
2017-11-03T20:22:50.603Z,94.50
2017-11-03T20:25:23.806Z,94.70
2017-11-03T20:27:52.967Z,94.70
2017-11-03T20:30:22.361Z,94.60
2017-11-03T20:32:52.324Z,94.70
2017-11-03T20:35:21.621Z,94.70
2017-11-03T20:37:52.085Z,94.60
2017-11-03T20:40:20.943Z,94.60
2017-11-03T20:42:50.341Z,94.70
2017-11-03T20:45:19.952Z,94.70
2017-11-03T20:47:49.805Z,94.50
2017-11-03T20:50:20.124Z,94.50
2017-11-03T20:52:49.075Z,94.50
2017-11-03T20:55:17.496Z,94.50
2017-11-03T20:57:46.377Z,94.50
2017-11-03T21:00:16.055Z,94.70
2017-11-03T21:02:44.149Z,94.70
2017-11-03T21:05:11.837Z,94.70
2017-11-03T21:07:39.470Z,94.60
2017-11-03T21:10:07.767Z,95.20
2017-11-03T21:12:36.096Z,95.10
2017-11-03T21:15:03.685Z,95.10
2017-11-03T21:17:31.259Z,95.00
2017-11-03T21:19:58.851Z,94.60
2017-11-03T21:22:27.406Z,94.50
2017-11-03T21:24:55.572Z,94.70
2017-11-03T21:27:23.848Z,94.60
2017-11-03T21:29:51.933Z,94.60
2017-11-03T21:32:21.408Z,94.40
2017-11-03T21:34:51.409Z,94.50
2017-11-03T21:37:22.044Z,94.10
2017-11-03T21:39:52.198Z,94.10
2017-11-03T21:42:22.465Z,94.00
2017-11-03T21:44:51.405Z,94.00
2017-11-03T21:47:21.371Z,94.20
2017-11-03T21:49:50.075Z,94.40
2017-11-03T21:52:20.887Z,94.30
2017-11-03T21:54:51.334Z,94.40
2017-11-03T21:57:22.300Z,94.60
2017-11-03T21:59:51.492Z,94.40
2017-11-03T22:02:21.145Z,94.40
2017-11-03T22:04:50.525Z,94.20
2017-11-03T22:07:19.793Z,94.30
2017-11-03T22:09:47.788Z,94.20
2017-11-03T22:12:16.223Z,94.10
2017-11-03T22:14:46.384Z,94.00
2017-11-03T22:17:17.494Z,94.00
2017-11-03T22:19:48.103Z,94.10
2017-11-03T22:22:19.916Z,94.10
2017-11-03T22:24:50.611Z,94.10
2017-11-03T22:27:20.488Z,94.00
2017-11-03T22:29:49.716Z,94.30
2017-11-03T22:32:19.252Z,94.30
2017-11-03T22:34:48.790Z,94.30
2017-11-03T22:37:18.871Z,93.80
2017-11-03T22:39:49.644Z,94.00
2017-11-03T22:42:18.381Z,93.70
2017-11-03T22:44:49.236Z,93.70
2017-11-03T22:47:19.961Z,93.90
2017-11-03T22:49:49.564Z,94.30
2017-11-03T22:52:19.870Z,94.20
2017-11-03T22:54:48.834Z,94.40
2017-11-03T22:57:19.133Z,94.20
2017-11-03T22:59:48.514Z,94.20
2017-11-03T23:02:16.685Z,94.20
2017-11-03T23:04:48.088Z,94.20
2017-11-03T23:07:17.763Z,94.20
2017-11-03T23:09:47.699Z,94.30
2017-11-03T23:12:18.291Z,94.50
2017-11-03T23:14:48.237Z,94.80
2017-11-03T23:17:16.669Z,94.90
2017-11-03T23:19:44.608Z,94.90
2017-11-03T23:22:13.381Z,94.50
2017-11-03T23:24:42.116Z,94.50
2017-11-03T23:27:09.712Z,94.60
2017-11-03T23:29:37.370Z,94.40
2017-11-03T23:32:04.912Z,94.40
2017-11-03T23:34:33.310Z,94.70
2017-11-03T23:37:02.176Z,94.60
2017-11-03T23:39:30.406Z,94.50
2017-11-03T23:41:58.799Z,94.30
2017-11-03T23:44:27.448Z,94.40
2017-11-03T23:46:55.368Z,94.40
2017-11-03T23:49:24.767Z,94.50
2017-11-03T23:51:53.647Z,94.70
2017-11-03T23:54:23.164Z,95.00
2017-11-03T23:56:52.091Z,94.90
2017-11-03T23:59:21.289Z,94.80
